sensor_id;sensor_type;location;lat;lon;timestamp;temperature;humidity
7654;DHT22;3869;48.406;10.774;2024-03-25T00:01:08;4.80;99.90
7654;DHT22;3869;48.406;10.774;2024-03-25T00:03:36;4.70;99.90
7654;DHT22;3869;48.406;10.774;2024-03-25T00:06:02;4.70;99.90
7654;DHT22;3869;48.406;10.774;2024-03-25T00:08:30;4.70;99.90
7654;DHT22;3869;48.406;10.774;2024-03-25T00:10:56;4.80;99.90
7654;DHT22;3869;48.406;10.774;2024-03-25T00:13:23;4.90;99.90
7654;DHT22;3869;48.406;10.774;2024-03-25T00:15:49;5.10;99.90
7654;DHT22;3869;48.406;10.774;2024-03-25T00:18:16;5.10;99.90
7654;DHT22;3869;48.406;10.774;2024-03-25T00:20:44;5.30;99.90
7654;DHT22;3869;48.406;10.774;2024-03-25T00:23:11;5.50;99.90
7654;DHT22;3869;48.406;10.774;2024-03-25T00:25:37;5.60;99.90
7654;DHT22;3869;48.406;10.774;2024-03-25T00:28:05;5.60;99.90
7654;DHT22;3869;48.406;10.774;2024-03-25T00:30:31;5.60;99.90
7654;DHT22;3869;48.406;10.774;2024-03-25T00:32:58;5.60;99.90
7654;DHT22;3869;48.406;10.774;2024-03-25T00:35:24;5.60;99.90
7654;DHT22;3869;48.406;10.774;2024-03-25T00:37:52;5.60;99.90
7654;DHT22;3869;48.406;10.774;2024-03-25T00:40:18;5.60;99.90
7654;DHT22;3869;48.406;10.774;2024-03-25T00:42:46;5.70;99.90
7654;DHT22;3869;48.406;10.774;2024-03-25T00:45:12;5.70;99.90
7654;DHT22;3869;48.406;10.774;2024-03-25T00:47:39;5.80;99.90
7654;DHT22;3869;48.406;10.774;2024-03-25T00:50:06;5.80;99.90
7654;DHT22;3869;48.406;10.774;2024-03-25T00:52:34;5.80;99.90
7654;DHT22;3869;48.406;10.774;2024-03-25T00:55:02;5.80;99.90
7654;DHT22;3869;48.406;10.774;2024-03-25T00:57:29;5.80;99.90
7654;DHT22;3869;48.406;10.774;2024-03-25T00:59:55;5.80;99.90
7654;DHT22;3869;48.406;10.774;2024-03-25T01:02:22;5.80;99.90
7654;DHT22;3869;48.406;10.774;2024-03-25T01:04:48;5.80;99.90
7654;DHT22;3869;48.406;10.774;2024-03-25T01:07:15;5.70;99.90
7654;DHT22;3869;48.406;10.774;2024-03-25T01:09:41;5.80;99.90
7654;DHT22;3869;48.406;10.774;2024-03-25T01:12:10;5.80;99.90
7654;DHT22;3869;48.406;10.774;2024-03-25T01:14:36;5.80;99.90
7654;DHT22;3869;48.406;10.774;2024-03-25T01:17:03;5.70;99.90
7654;DHT22;3869;48.406;10.774;2024-03-25T01:19:29;5.70;99.90
7654;DHT22;3869;48.406;10.774;2024-03-25T01:21:56;5.70;99.90
7654;DHT22;3869;48.406;10.774;2024-03-25T01:24:22;5.70;99.90
7654;DHT22;3869;48.406;10.774;2024-03-25T01:26:50;5.80;99.90
7654;DHT22;3869;48.406;10.774;2024-03-25T01:29:18;5.80;99.90
7654;DHT22;3869;48.406;10.774;2024-03-25T01:31:45;5.90;99.90
7654;DHT22;3869;48.406;10.774;2024-03-25T01:34:11;5.90;99.90
7654;DHT22;3869;48.406;10.774;2024-03-25T01:36:38;5.80;99.90
7654;DHT22;3869;48.406;10.774;2024-03-25T01:39:05;5.80;99.90
7654;DHT22;3869;48.406;10.774;2024-03-25T01:41:32;5.70;99.90
7654;DHT22;3869;48.406;10.774;2024-03-25T01:43:58;5.70;99.90
7654;DHT22;3869;48.406;10.774;2024-03-25T01:46:26;5.60;99.90
7654;DHT22;3869;48.406;10.774;2024-03-25T01:48:53;5.50;99.90
7654;DHT22;3869;48.406;10.774;2024-03-25T01:51:24;5.30;99.90
7654;DHT22;3869;48.406;10.774;2024-03-25T01:53:52;5.30;99.90
7654;DHT22;3869;48.406;10.774;2024-03-25T01:56:21;5.20;99.90
7654;DHT22;3869;48.406;10.774;2024-03-25T01:58:49;5.20;99.90
7654;DHT22;3869;48.406;10.774;2024-03-25T02:01:16;5.10;99.90
7654;DHT22;3869;48.406;10.774;2024-03-25T02:03:44;5.10;99.90
7654;DHT22;3869;48.406;10.774;2024-03-25T02:06:13;5.10;99.90
7654;DHT22;3869;48.406;10.774;2024-03-25T02:08:41;5.20;99.90
7654;DHT22;3869;48.406;10.774;2024-03-25T02:11:08;5.30;99.90
7654;DHT22;3869;48.406;10.774;2024-03-25T02:13:35;5.40;99.90
7654;DHT22;3869;48.406;10.774;2024-03-25T02:16:02;5.50;99.90
7654;DHT22;3869;48.406;10.774;2024-03-25T02:18:29;5.50;99.90
7654;DHT22;3869;48.406;10.774;2024-03-25T02:20:59;5.60;99.90
7654;DHT22;3869;48.406;10.774;2024-03-25T02:23:26;5.60;99.90
7654;DHT22;3869;48.406;10.774;2024-03-25T02:25:55;5.70;99.90
7654;DHT22;3869;48.406;10.774;2024-03-25T02:28:21;5.70;99.90
7654;DHT22;3869;48.406;10.774;2024-03-25T02:30:48;5.70;99.90
7654;DHT22;3869;48.406;10.774;2024-03-25T02:33:14;5.70;99.90
7654;DHT22;3869;48.406;10.774;2024-03-25T02:35:42;5.70;99.90
7654;DHT22;3869;48.406;10.774;2024-03-25T02:38:09;5.70;99.90
7654;DHT22;3869;48.406;10.774;2024-03-25T02:40:37;5.80;99.90
7654;DHT22;3869;48.406;10.774;2024-03-25T02:43:05;5.80;99.90
7654;DHT22;3869;48.406;10.774;2024-03-25T02:45:33;5.90;99.90
7654;DHT22;3869;48.406;10.774;2024-03-25T02:47:59;6.00;99.90
7654;DHT22;3869;48.406;10.774;2024-03-25T02:50:26;5.90;99.90
7654;DHT22;3869;48.406;10.774;2024-03-25T02:52:52;5.90;99.90
7654;DHT22;3869;48.406;10.774;2024-03-25T02:55:19;5.90;99.90
7654;DHT22;3869;48.406;10.774;2024-03-25T02:57:45;5.90;99.90
7654;DHT22;3869;48.406;10.774;2024-03-25T03:00:14;5.80;99.90
7654;DHT22;3869;48.406;10.774;2024-03-25T03:02:40;5.80;99.90
7654;DHT22;3869;48.406;10.774;2024-03-25T03:05:08;5.70;99.90
7654;DHT22;3869;48.406;10.774;2024-03-25T03:07:34;5.70;99.90
7654;DHT22;3869;48.406;10.774;2024-03-25T03:10:01;5.60;99.90
7654;DHT22;3869;48.406;10.774;2024-03-25T03:12:27;5.50;99.90
7654;DHT22;3869;48.406;10.774;2024-03-25T03:14:54;5.50;99.90
7654;DHT22;3869;48.406;10.774;2024-03-25T03:17:21;5.50;99.90
7654;DHT22;3869;48.406;10.774;2024-03-25T03:19:48;5.50;99.90
7654;DHT22;3869;48.406;10.774;2024-03-25T03:22:14;5.50;99.90
7654;DHT22;3869;48.406;10.774;2024-03-25T03:24:41;5.50;99.90
7654;DHT22;3869;48.406;10.774;2024-03-25T03:27:07;5.50;99.90
7654;DHT22;3869;48.406;10.774;2024-03-25T03:29:35;5.40;99.90
7654;DHT22;3869;48.406;10.774;2024-03-25T03:32:01;5.40;99.90
7654;DHT22;3869;48.406;10.774;2024-03-25T03:34:29;5.30;99.90
7654;DHT22;3869;48.406;10.774;2024-03-25T03:36:55;5.30;99.90
7654;DHT22;3869;48.406;10.774;2024-03-25T03:39:22;5.30;99.90
7654;DHT22;3869;48.406;10.774;2024-03-25T03:41:48;5.30;99.90
7654;DHT22;3869;48.406;10.774;2024-03-25T03:44:15;5.30;99.90
7654;DHT22;3869;48.406;10.774;2024-03-25T03:46:41;5.30;99.90
7654;DHT22;3869;48.406;10.774;2024-03-25T03:49:08;5.30;99.90
7654;DHT22;3869;48.406;10.774;2024-03-25T03:51:36;5.30;99.90
7654;DHT22;3869;48.406;10.774;2024-03-25T03:54:03;5.30;99.90
7654;DHT22;3869;48.406;10.774;2024-03-25T03:56:29;5.30;99.90
7654;DHT22;3869;48.406;10.774;2024-03-25T03:58:56;5.30;99.90
7654;DHT22;3869;48.406;10.774;2024-03-25T04:01:22;5.20;99.90
7654;DHT22;3869;48.406;10.774;2024-03-25T04:03:49;5.30;99.90
7654;DHT22;3869;48.406;10.774;2024-03-25T04:06:15;5.20;99.90
7654;DHT22;3869;48.406;10.774;2024-03-25T04:08:44;5.20;99.90
7654;DHT22;3869;48.406;10.774;2024-03-25T04:11:10;5.10;99.90
7654;DHT22;3869;48.406;10.774;2024-03-25T04:13:37;5.10;99.90
7654;DHT22;3869;48.406;10.774;2024-03-25T04:16:05;5.10;99.90
7654;DHT22;3869;48.406;10.774;2024-03-25T04:18:33;5.10;99.90
7654;DHT22;3869;48.406;10.774;2024-03-25T04:20:59;5.10;99.90
7654;DHT22;3869;48.406;10.774;2024-03-25T04:23:27;5.10;99.90
7654;DHT22;3869;48.406;10.774;2024-03-25T04:25:54;5.10;99.90
7654;DHT22;3869;48.406;10.774;2024-03-25T04:28:21;5.10;99.90
7654;DHT22;3869;48.406;10.774;2024-03-25T04:30:52;5.10;99.90
7654;DHT22;3869;48.406;10.774;2024-03-25T04:33:19;5.10;99.90
7654;DHT22;3869;48.406;10.774;2024-03-25T04:35:46;5.10;99.90
7654;DHT22;3869;48.406;10.774;2024-03-25T04:38:15;5.00;99.90
7654;DHT22;3869;48.406;10.774;2024-03-25T04:40:41;5.00;99.90
7654;DHT22;3869;48.406;10.774;2024-03-25T04:43:09;5.00;99.90
7654;DHT22;3869;48.406;10.774;2024-03-25T04:45:35;4.90;99.90
7654;DHT22;3869;48.406;10.774;2024-03-25T04:48:01;4.80;99.90
7654;DHT22;3869;48.406;10.774;2024-03-25T04:50:27;4.80;99.90
7654;DHT22;3869;48.406;10.774;2024-03-25T04:52:53;4.80;99.90
7654;DHT22;3869;48.406;10.774;2024-03-25T04:55:20;4.80;99.90
7654;DHT22;3869;48.406;10.774;2024-03-25T04:57:46;4.70;99.90
7654;DHT22;3869;48.406;10.774;2024-03-25T05:00:14;4.70;99.90
7654;DHT22;3869;48.406;10.774;2024-03-25T05:02:40;4.80;99.90
7654;DHT22;3869;48.406;10.774;2024-03-25T05:05:07;4.70;99.90
7654;DHT22;3869;48.406;10.774;2024-03-25T05:07:33;4.80;99.90
7654;DHT22;3869;48.406;10.774;2024-03-25T05:09:59;4.70;99.90
7654;DHT22;3869;48.406;10.774;2024-03-25T05:12:25;4.70;99.90
7654;DHT22;3869;48.406;10.774;2024-03-25T05:14:51;4.70;99.90
7654;DHT22;3869;48.406;10.774;2024-03-25T05:17:19;4.60;99.90
7654;DHT22;3869;48.406;10.774;2024-03-25T05:19:45;4.60;99.90
7654;DHT22;3869;48.406;10.774;2024-03-25T05:22:11;4.50;99.90
7654;DHT22;3869;48.406;10.774;2024-03-25T05:24:37;4.60;99.90
7654;DHT22;3869;48.406;10.774;2024-03-25T05:27:04;4.60;99.90
7654;DHT22;3869;48.406;10.774;2024-03-25T05:29:30;4.50;99.90
7654;DHT22;3869;48.406;10.774;2024-03-25T05:31:57;4.40;99.90
7654;DHT22;3869;48.406;10.774;2024-03-25T05:34:26;4.40;99.90
7654;DHT22;3869;48.406;10.774;2024-03-25T05:36:52;4.40;99.90
7654;DHT22;3869;48.406;10.774;2024-03-25T05:39:19;4.50;99.90
7654;DHT22;3869;48.406;10.774;2024-03-25T05:41:45;4.50;99.90
7654;DHT22;3869;48.406;10.774;2024-03-25T05:44:11;4.50;99.90
7654;DHT22;3869;48.406;10.774;2024-03-25T05:46:38;4.50;99.90
7654;DHT22;3869;48.406;10.774;2024-03-25T05:49:05;4.50;99.90
7654;DHT22;3869;48.406;10.774;2024-03-25T05:51:32;4.50;99.90
7654;DHT22;3869;48.406;10.774;2024-03-25T05:53:59;4.60;99.90
7654;DHT22;3869;48.406;10.774;2024-03-25T05:56:25;4.60;99.90
7654;DHT22;3869;48.406;10.774;2024-03-25T05:58:52;4.60;99.90
7654;DHT22;3869;48.406;10.774;2024-03-25T06:01:18;4.70;99.90
7654;DHT22;3869;48.406;10.774;2024-03-25T06:03:44;4.60;99.90
7654;DHT22;3869;48.406;10.774;2024-03-25T06:06:11;4.60;99.90
7654;DHT22;3869;48.406;10.774;2024-03-25T06:08:38;4.60;99.90
7654;DHT22;3869;48.406;10.774;2024-03-25T06:11:04;4.70;99.90
7654;DHT22;3869;48.406;10.774;2024-03-25T06:13:30;4.70;99.90
7654;DHT22;3869;48.406;10.774;2024-03-25T06:15:56;4.70;99.90
7654;DHT22;3869;48.406;10.774;2024-03-25T06:18:23;4.80;99.90
7654;DHT22;3869;48.406;10.774;2024-03-25T06:20:49;4.80;99.90
7654;DHT22;3869;48.406;10.774;2024-03-25T06:23:24;4.80;99.90
7654;DHT22;3869;48.406;10.774;2024-03-25T06:25:53;4.80;99.90
7654;DHT22;3869;48.406;10.774;2024-03-25T06:28:20;4.80;99.90
7654;DHT22;3869;48.406;10.774;2024-03-25T06:30:46;4.90;99.90
7654;DHT22;3869;48.406;10.774;2024-03-25T06:33:31;4.90;99.90
7654;DHT22;3869;48.406;10.774;2024-03-25T06:36:16;5.00;99.90
7654;DHT22;3869;48.406;10.774;2024-03-25T06:38:42;5.00;99.90
7654;DHT22;3869;48.406;10.774;2024-03-25T06:41:09;5.00;99.90
7654;DHT22;3869;48.406;10.774;2024-03-25T06:43:36;5.00;99.90
7654;DHT22;3869;48.406;10.774;2024-03-25T06:46:02;5.00;99.90
7654;DHT22;3869;48.406;10.774;2024-03-25T06:48:28;5.10;99.90
7654;DHT22;3869;48.406;10.774;2024-03-25T06:50:55;5.20;99.90
7654;DHT22;3869;48.406;10.774;2024-03-25T06:53:22;5.30;99.90
7654;DHT22;3869;48.406;10.774;2024-03-25T06:55:52;5.40;99.90
7654;DHT22;3869;48.406;10.774;2024-03-25T06:58:21;5.40;99.90
7654;DHT22;3869;48.406;10.774;2024-03-25T07:00:47;5.50;99.90
7654;DHT22;3869;48.406;10.774;2024-03-25T07:03:14;5.40;99.90
7654;DHT22;3869;48.406;10.774;2024-03-25T07:05:40;5.30;99.90
7654;DHT22;3869;48.406;10.774;2024-03-25T07:08:06;5.20;99.90
7654;DHT22;3869;48.406;10.774;2024-03-25T07:10:32;5.20;99.90
7654;DHT22;3869;48.406;10.774;2024-03-25T07:12:59;5.20;99.90
7654;DHT22;3869;48.406;10.774;2024-03-25T07:15:26;5.30;99.90
7654;DHT22;3869;48.406;10.774;2024-03-25T07:17:52;5.30;99.90
7654;DHT22;3869;48.406;10.774;2024-03-25T07:20:19;5.30;99.90
7654;DHT22;3869;48.406;10.774;2024-03-25T07:22:45;5.40;99.90
7654;DHT22;3869;48.406;10.774;2024-03-25T07:25:11;5.40;99.90
7654;DHT22;3869;48.406;10.774;2024-03-25T07:27:37;5.50;99.90
7654;DHT22;3869;48.406;10.774;2024-03-25T07:30:04;5.50;99.90
7654;DHT22;3869;48.406;10.774;2024-03-25T07:32:32;5.60;99.90
7654;DHT22;3869;48.406;10.774;2024-03-25T07:34:58;5.60;99.90
7654;DHT22;3869;48.406;10.774;2024-03-25T07:37:24;5.60;99.90
7654;DHT22;3869;48.406;10.774;2024-03-25T07:39:50;5.70;99.90
7654;DHT22;3869;48.406;10.774;2024-03-25T07:42:17;5.80;99.90
7654;DHT22;3869;48.406;10.774;2024-03-25T07:44:43;5.90;99.90
7654;DHT22;3869;48.406;10.774;2024-03-25T07:47:09;5.90;99.90
7654;DHT22;3869;48.406;10.774;2024-03-25T07:49:36;5.90;99.90
7654;DHT22;3869;48.406;10.774;2024-03-25T07:52:03;5.90;99.90
7654;DHT22;3869;48.406;10.774;2024-03-25T07:54:29;5.90;99.90
7654;DHT22;3869;48.406;10.774;2024-03-25T07:56:55;6.10;99.90
7654;DHT22;3869;48.406;10.774;2024-03-25T07:59:21;6.20;99.90
7654;DHT22;3869;48.406;10.774;2024-03-25T08:01:48;6.30;99.90
7654;DHT22;3869;48.406;10.774;2024-03-25T08:04:14;6.40;99.90
7654;DHT22;3869;48.406;10.774;2024-03-25T08:06:41;6.40;99.90
7654;DHT22;3869;48.406;10.774;2024-03-25T08:09:07;6.50;99.90
7654;DHT22;3869;48.406;10.774;2024-03-25T08:11:35;6.60;99.90
7654;DHT22;3869;48.406;10.774;2024-03-25T08:14:01;6.60;99.90
7654;DHT22;3869;48.406;10.774;2024-03-25T08:16:27;6.60;99.90
7654;DHT22;3869;48.406;10.774;2024-03-25T08:18:53;6.50;99.90
7654;DHT22;3869;48.406;10.774;2024-03-25T08:21:19;6.40;99.90
7654;DHT22;3869;48.406;10.774;2024-03-25T08:23:47;6.40;99.90
7654;DHT22;3869;48.406;10.774;2024-03-25T08:26:13;6.30;99.90
7654;DHT22;3869;48.406;10.774;2024-03-25T08:28:39;6.30;99.90
7654;DHT22;3869;48.406;10.774;2024-03-25T08:31:05;6.30;99.90
7654;DHT22;3869;48.406;10.774;2024-03-25T08:33:31;6.40;99.90
7654;DHT22;3869;48.406;10.774;2024-03-25T08:35:57;6.50;99.90
7654;DHT22;3869;48.406;10.774;2024-03-25T08:38:24;6.70;99.90
7654;DHT22;3869;48.406;10.774;2024-03-25T08:40:52;6.70;99.90
7654;DHT22;3869;48.406;10.774;2024-03-25T08:43:18;6.80;99.90
7654;DHT22;3869;48.406;10.774;2024-03-25T08:45:44;6.80;99.90
7654;DHT22;3869;48.406;10.774;2024-03-25T08:48:10;6.80;99.90
7654;DHT22;3869;48.406;10.774;2024-03-25T08:50:36;7.00;99.90
7654;DHT22;3869;48.406;10.774;2024-03-25T08:53:03;7.20;99.90
7654;DHT22;3869;48.406;10.774;2024-03-25T08:55:30;7.30;99.90
7654;DHT22;3869;48.406;10.774;2024-03-25T08:57:57;7.40;99.90
7654;DHT22;3869;48.406;10.774;2024-03-25T09:00:24;7.50;99.90
7654;DHT22;3869;48.406;10.774;2024-03-25T09:02:50;7.50;99.90
7654;DHT22;3869;48.406;10.774;2024-03-25T09:05:16;7.60;99.90
7654;DHT22;3869;48.406;10.774;2024-03-25T09:07:44;7.70;99.90
7654;DHT22;3869;48.406;10.774;2024-03-25T09:10:10;7.80;99.90
7654;DHT22;3869;48.406;10.774;2024-03-25T09:12:54;7.80;99.90
7654;DHT22;3869;48.406;10.774;2024-03-25T09:15:22;7.70;99.90
7654;DHT22;3869;48.406;10.774;2024-03-25T09:17:48;7.70;99.90
7654;DHT22;3869;48.406;10.774;2024-03-25T09:20:14;7.70;99.90
7654;DHT22;3869;48.406;10.774;2024-03-25T09:22:42;7.80;99.90
7654;DHT22;3869;48.406;10.774;2024-03-25T09:25:08;8.00;99.90
7654;DHT22;3869;48.406;10.774;2024-03-25T09:27:35;8.00;99.90
7654;DHT22;3869;48.406;10.774;2024-03-25T09:30:01;8.10;99.90
7654;DHT22;3869;48.406;10.774;2024-03-25T09:32:29;8.00;99.90
7654;DHT22;3869;48.406;10.774;2024-03-25T09:34:55;8.10;99.90
7654;DHT22;3869;48.406;10.774;2024-03-25T09:37:21;8.20;99.90
7654;DHT22;3869;48.406;10.774;2024-03-25T09:39:47;8.30;99.90
7654;DHT22;3869;48.406;10.774;2024-03-25T09:42:15;8.20;99.90
7654;DHT22;3869;48.406;10.774;2024-03-25T09:44:45;8.20;99.90
7654;DHT22;3869;48.406;10.774;2024-03-25T09:47:11;8.20;99.90
7654;DHT22;3869;48.406;10.774;2024-03-25T09:49:40;8.20;99.90
7654;DHT22;3869;48.406;10.774;2024-03-25T09:52:07;8.20;99.90
7654;DHT22;3869;48.406;10.774;2024-03-25T09:54:33;8.10;99.90
7654;DHT22;3869;48.406;10.774;2024-03-25T09:57:00;8.00;99.90
7654;DHT22;3869;48.406;10.774;2024-03-25T09:59:27;7.90;99.90
7654;DHT22;3869;48.406;10.774;2024-03-25T10:01:54;7.80;99.90
7654;DHT22;3869;48.406;10.774;2024-03-25T10:04:20;7.80;99.90
7654;DHT22;3869;48.406;10.774;2024-03-25T10:06:47;7.80;99.90
7654;DHT22;3869;48.406;10.774;2024-03-25T10:09:19;8.00;99.90
7654;DHT22;3869;48.406;10.774;2024-03-25T10:11:47;8.20;99.90
7654;DHT22;3869;48.406;10.774;2024-03-25T10:14:15;8.40;99.90
7654;DHT22;3869;48.406;10.774;2024-03-25T10:16:41;8.40;99.00
7654;DHT22;3869;48.406;10.774;2024-03-25T10:19:07;8.40;98.90
7654;DHT22;3869;48.406;10.774;2024-03-25T10:21:33;8.40;98.60
7654;DHT22;3869;48.406;10.774;2024-03-25T10:24:01;8.50;98.10
7654;DHT22;3869;48.406;10.774;2024-03-25T10:26:28;8.50;97.50
7654;DHT22;3869;48.406;10.774;2024-03-25T10:29:01;8.60;97.50
7654;DHT22;3869;48.406;10.774;2024-03-25T10:31:28;8.70;95.80
7654;DHT22;3869;48.406;10.774;2024-03-25T10:33:55;8.70;97.40
7654;DHT22;3869;48.406;10.774;2024-03-25T10:36:21;8.90;98.10
7654;DHT22;3869;48.406;10.774;2024-03-25T10:38:49;9.00;98.00
7654;DHT22;3869;48.406;10.774;2024-03-25T10:41:18;9.10;99.10
7654;DHT22;3869;48.406;10.774;2024-03-25T10:43:46;9.30;98.40
7654;DHT22;3869;48.406;10.774;2024-03-25T10:46:17;9.30;97.20
7654;DHT22;3869;48.406;10.774;2024-03-25T10:48:48;9.50;97.20
7654;DHT22;3869;48.406;10.774;2024-03-25T10:51:14;9.40;95.80
7654;DHT22;3869;48.406;10.774;2024-03-25T10:53:41;9.40;96.20
7654;DHT22;3869;48.406;10.774;2024-03-25T10:56:08;9.50;96.80
7654;DHT22;3869;48.406;10.774;2024-03-25T10:58:38;9.60;96.70
7654;DHT22;3869;48.406;10.774;2024-03-25T11:01:06;9.70;96.30
7654;DHT22;3869;48.406;10.774;2024-03-25T11:03:34;9.80;96.70
7654;DHT22;3869;48.406;10.774;2024-03-25T11:06:00;9.80;95.90
7654;DHT22;3869;48.406;10.774;2024-03-25T11:08:30;9.90;98.10
7654;DHT22;3869;48.406;10.774;2024-03-25T11:10:57;9.90;96.90
7654;DHT22;3869;48.406;10.774;2024-03-25T11:13:23;10.00;96.00
7654;DHT22;3869;48.406;10.774;2024-03-25T11:15:51;10.10;96.60
7654;DHT22;3869;48.406;10.774;2024-03-25T11:18:21;10.10;95.50
7654;DHT22;3869;48.406;10.774;2024-03-25T11:20:48;10.10;95.30
7654;DHT22;3869;48.406;10.774;2024-03-25T11:23:14;10.10;96.10
7654;DHT22;3869;48.406;10.774;2024-03-25T11:25:41;10.10;95.50
7654;DHT22;3869;48.406;10.774;2024-03-25T11:28:09;10.10;95.30
7654;DHT22;3869;48.406;10.774;2024-03-25T11:30:36;10.20;95.00
7654;DHT22;3869;48.406;10.774;2024-03-25T11:33:04;10.20;94.80
7654;DHT22;3869;48.406;10.774;2024-03-25T11:35:36;10.20;95.50
7654;DHT22;3869;48.406;10.774;2024-03-25T11:38:02;10.20;94.40
7654;DHT22;3869;48.406;10.774;2024-03-25T11:40:28;10.10;94.10
7654;DHT22;3869;48.406;10.774;2024-03-25T11:42:55;10.10;94.20
7654;DHT22;3869;48.406;10.774;2024-03-25T11:45:21;10.10;94.50
7654;DHT22;3869;48.406;10.774;2024-03-25T11:47:48;10.10;94.10
7654;DHT22;3869;48.406;10.774;2024-03-25T11:50:17;10.00;94.40
7654;DHT22;3869;48.406;10.774;2024-03-25T11:52:44;10.00;95.10
7654;DHT22;3869;48.406;10.774;2024-03-25T11:55:10;10.00;94.80
7654;DHT22;3869;48.406;10.774;2024-03-25T11:57:37;10.00;94.90
7654;DHT22;3869;48.406;10.774;2024-03-25T12:00:04;9.90;94.90
7654;DHT22;3869;48.406;10.774;2024-03-25T12:02:31;9.70;93.80
7654;DHT22;3869;48.406;10.774;2024-03-25T12:04:57;9.80;94.30
7654;DHT22;3869;48.406;10.774;2024-03-25T12:07:25;9.80;94.40
7654;DHT22;3869;48.406;10.774;2024-03-25T12:09:51;9.80;94.30
7654;DHT22;3869;48.406;10.774;2024-03-25T12:12:36;9.80;93.10
7654;DHT22;3869;48.406;10.774;2024-03-25T12:15:03;9.80;93.90
7654;DHT22;3869;48.406;10.774;2024-03-25T12:17:29;9.80;93.80
7654;DHT22;3869;48.406;10.774;2024-03-25T12:19:59;9.80;93.40
7654;DHT22;3869;48.406;10.774;2024-03-25T12:22:29;9.80;93.70
7654;DHT22;3869;48.406;10.774;2024-03-25T12:24:57;9.80;93.60
7654;DHT22;3869;48.406;10.774;2024-03-25T12:27:24;9.80;93.00
7654;DHT22;3869;48.406;10.774;2024-03-25T12:29:58;9.80;92.10
7654;DHT22;3869;48.406;10.774;2024-03-25T12:32:31;9.80;92.60
7654;DHT22;3869;48.406;10.774;2024-03-25T12:34:58;9.80;92.70
7654;DHT22;3869;48.406;10.774;2024-03-25T12:37:27;9.80;92.90
7654;DHT22;3869;48.406;10.774;2024-03-25T12:39:53;9.90;93.10
7654;DHT22;3869;48.406;10.774;2024-03-25T12:42:19;9.80;92.00
7654;DHT22;3869;48.406;10.774;2024-03-25T12:44:46;9.80;92.80
7654;DHT22;3869;48.406;10.774;2024-03-25T12:47:12;10.00;93.00
7654;DHT22;3869;48.406;10.774;2024-03-25T12:49:38;10.20;92.60
7654;DHT22;3869;48.406;10.774;2024-03-25T12:52:05;10.20;92.00
7654;DHT22;3869;48.406;10.774;2024-03-25T12:54:33;10.30;93.10
7654;DHT22;3869;48.406;10.774;2024-03-25T12:56:59;10.50;93.40
7654;DHT22;3869;48.406;10.774;2024-03-25T12:59:26;10.50;92.20
7654;DHT22;3869;48.406;10.774;2024-03-25T13:01:52;10.50;91.80
7654;DHT22;3869;48.406;10.774;2024-03-25T13:04:18;10.50;91.70
7654;DHT22;3869;48.406;10.774;2024-03-25T13:06:44;10.50;91.70
7654;DHT22;3869;48.406;10.774;2024-03-25T13:09:10;10.60;92.00
7654;DHT22;3869;48.406;10.774;2024-03-25T13:11:38;10.70;92.40
7654;DHT22;3869;48.406;10.774;2024-03-25T13:14:04;10.70;91.60
7654;DHT22;3869;48.406;10.774;2024-03-25T13:16:31;10.70;91.80
7654;DHT22;3869;48.406;10.774;2024-03-25T13:18:57;10.60;91.80
7654;DHT22;3869;48.406;10.774;2024-03-25T13:21:24;10.50;91.20
7654;DHT22;3869;48.406;10.774;2024-03-25T13:23:50;10.30;91.50
7654;DHT22;3869;48.406;10.774;2024-03-25T13:26:16;10.30;92.00
7654;DHT22;3869;48.406;10.774;2024-03-25T13:28:44;10.40;92.20
7654;DHT22;3869;48.406;10.774;2024-03-25T13:31:10;10.50;91.40
7654;DHT22;3869;48.406;10.774;2024-03-25T13:33:36;10.60;92.10
7654;DHT22;3869;48.406;10.774;2024-03-25T13:36:03;10.70;92.50
7654;DHT22;3869;48.406;10.774;2024-03-25T13:38:29;10.80;91.40
7654;DHT22;3869;48.406;10.774;2024-03-25T13:40:55;11.00;92.60
7654;DHT22;3869;48.406;10.774;2024-03-25T13:43:21;11.10;91.70
7654;DHT22;3869;48.406;10.774;2024-03-25T13:45:49;11.10;91.30
7654;DHT22;3869;48.406;10.774;2024-03-25T13:48:15;11.00;91.30
7654;DHT22;3869;48.406;10.774;2024-03-25T13:50:42;11.10;91.70
7654;DHT22;3869;48.406;10.774;2024-03-25T13:53:08;11.10;91.30
7654;DHT22;3869;48.406;10.774;2024-03-25T13:55:34;11.10;91.60
7654;DHT22;3869;48.406;10.774;2024-03-25T13:58:00;11.10;91.30
7654;DHT22;3869;48.406;10.774;2024-03-25T14:00:27;10.90;89.30
7654;DHT22;3869;48.406;10.774;2024-03-25T14:02:54;10.40;90.00
7654;DHT22;3869;48.406;10.774;2024-03-25T14:05:21;10.50;92.40
7654;DHT22;3869;48.406;10.774;2024-03-25T14:07:47;10.60;92.00
7654;DHT22;3869;48.406;10.774;2024-03-25T14:10:13;10.60;91.30
7654;DHT22;3869;48.406;10.774;2024-03-25T14:12:39;10.40;91.10
7654;DHT22;3869;48.406;10.774;2024-03-25T14:15:06;10.40;90.80
7654;DHT22;3869;48.406;10.774;2024-03-25T14:17:32;10.40;90.50
7654;DHT22;3869;48.406;10.774;2024-03-25T14:20:00;10.30;90.20
7654;DHT22;3869;48.406;10.774;2024-03-25T14:22:26;10.20;90.60
7654;DHT22;3869;48.406;10.774;2024-03-25T14:24:52;10.20;90.90
7654;DHT22;3869;48.406;10.774;2024-03-25T14:27:19;10.20;91.00
7654;DHT22;3869;48.406;10.774;2024-03-25T14:29:45;10.30;91.10
7654;DHT22;3869;48.406;10.774;2024-03-25T14:32:11;10.30;90.80
7654;DHT22;3869;48.406;10.774;2024-03-25T14:34:37;10.40;90.90
7654;DHT22;3869;48.406;10.774;2024-03-25T14:37:05;10.40;90.90
7654;DHT22;3869;48.406;10.774;2024-03-25T14:39:31;10.40;90.10
7654;DHT22;3869;48.406;10.774;2024-03-25T14:41:57;10.30;90.40
7654;DHT22;3869;48.406;10.774;2024-03-25T14:44:24;10.20;91.10
7654;DHT22;3869;48.406;10.774;2024-03-25T14:46:50;10.20;90.30
7654;DHT22;3869;48.406;10.774;2024-03-25T14:49:16;10.20;90.70
7654;DHT22;3869;48.406;10.774;2024-03-25T14:51:42;10.30;90.10
7654;DHT22;3869;48.406;10.774;2024-03-25T14:54:09;10.20;90.50
7654;DHT22;3869;48.406;10.774;2024-03-25T14:56:35;10.20;90.30
7654;DHT22;3869;48.406;10.774;2024-03-25T14:59:02;10.20;90.30
7654;DHT22;3869;48.406;10.774;2024-03-25T15:01:28;10.10;88.40
7654;DHT22;3869;48.406;10.774;2024-03-25T15:03:54;9.90;90.80
7654;DHT22;3869;48.406;10.774;2024-03-25T15:06:20;9.80;90.80
7654;DHT22;3869;48.406;10.774;2024-03-25T15:08:46;9.80;91.00
7654;DHT22;3869;48.406;10.774;2024-03-25T15:11:13;9.80;90.70
7654;DHT22;3869;48.406;10.774;2024-03-25T15:13:40;9.90;91.60
7654;DHT22;3869;48.406;10.774;2024-03-25T15:16:06;9.90;90.70
7654;DHT22;3869;48.406;10.774;2024-03-25T15:18:33;10.00;89.80
7654;DHT22;3869;48.406;10.774;2024-03-25T15:21:00;9.90;90.30
7654;DHT22;3869;48.406;10.774;2024-03-25T15:23:26;10.00;89.30
7654;DHT22;3869;48.406;10.774;2024-03-25T15:25:52;10.00;88.60
7654;DHT22;3869;48.406;10.774;2024-03-25T15:28:20;10.00;90.30
7654;DHT22;3869;48.406;10.774;2024-03-25T15:30:46;10.10;90.00
7654;DHT22;3869;48.406;10.774;2024-03-25T15:33:13;10.10;89.50
7654;DHT22;3869;48.406;10.774;2024-03-25T15:35:39;9.90;89.80
7654;DHT22;3869;48.406;10.774;2024-03-25T15:38:05;9.90;90.00
7654;DHT22;3869;48.406;10.774;2024-03-25T15:40:31;9.80;90.30
7654;DHT22;3869;48.406;10.774;2024-03-25T15:42:58;9.90;90.70
7654;DHT22;3869;48.406;10.774;2024-03-25T15:45:26;10.00;90.20
7654;DHT22;3869;48.406;10.774;2024-03-25T15:47:52;10.00;89.50
7654;DHT22;3869;48.406;10.774;2024-03-25T15:50:18;10.00;90.00
7654;DHT22;3869;48.406;10.774;2024-03-25T15:52:44;10.00;90.20
7654;DHT22;3869;48.406;10.774;2024-03-25T15:55:10;10.00;90.30